Detalii statie FERMA VISANI-IMB [000011A7]

Toti senzorii

Date Temperatura solului [C]Precipitatii [mm]Voltaj baterie [mV]Leaf Wetness [Min]HC Air temperature [C]HC Relative humidity [%]Punctul de roua [C]
medieminmaxsumaultimatimpmedieminmaxmediemediemin
2018-08-12 11:00:00 32 30.5 33.6 0.2 6806 0 29.43 28.72 30.17 0 0 0
2018-08-12 12:00:00 35.2 33.7 36.4 0 6826 0 31 30.13 31.78 0 0 0
2018-08-12 13:00:00 37.5 36.6 38.7 0 6864 0 31.68 31.05 32.83 0 0 0
2018-08-12 14:00:00 39.6 38.8 40.3 0 6914 0 32.48 31.48 33.11 0 0 0
2018-08-12 15:00:00 39.2 38.5 40.4 0.2 6914 0 31.75 29.32 34.21 0 0 0
2018-08-12 16:00:00 39.9 39.2 40.4 0 6914 0 32.41 31.49 33.86 0 0 0
2018-08-12 17:00:00 39.9 39.5 40.3 0 6874 0 32.47 31.96 33.32 0 0 0
2018-08-12 18:00:00 38.6 37.8 39.5 0 6796 0 31.51 30.76 31.98 0 0 0
2018-08-12 19:00:00 36.6 35.7 37.7 0 6620 0 30.77 30.55 31.01 0 0 0
2018-08-12 20:00:00 34.3 33.3 35.3 0 6600 0 27.98 26.37 30.42 0 0 0
2018-08-12 21:00:00 32 31.1 33 0 6590 0 24.68 23 26.09 0 0 0
2018-08-12 22:00:00 30.3 29.7 31.1 0 6582 0 21.73 20.89 23.03 0 0 0
2018-08-12 23:00:00 28.9 28.4 29.5 0 6572 0 19.86 18.88 20.7 0 0 0
2018-08-13 00:00:00 27.8 27.5 28.4 0 6562 0 18.31 17.85 18.66 0 0 0
2018-08-13 01:00:00 26.8 26.6 27.2 0 6562 0 17.27 16.86 17.76 0 0 0
2018-08-13 02:00:00 26.1 25.8 26.5 0 6562 0 16.14 15.8 16.75 0 0 0
2018-08-13 03:00:00 25.4 25.2 25.8 0 6552 0 15.79 15.41 16.09 0 0 0
2018-08-13 04:00:00 24.8 24.5 25.1 0 6542 0 14.68 13.81 15.81 0 0 0
2018-08-13 05:00:00 24.1 23.9 24.4 0 6542 0 13.5 13.32 13.67 0 0 0
2018-08-13 06:00:00 23.6 23.5 23.8 0 6532 0 13.58 13.19 14.1 41.66 0
2018-08-13 07:00:00 23.3 23.2 23.6 0 6532 0 13.91 13.53 14.37 41.66 0
2018-08-13 08:00:00 23.2 23.2 23.4 0 6542 0 16.5 14.64 19.33 8.33 0
2018-08-13 09:00:00 24.8 23.4 26.5 0 6600 0 22.69 19.75 24.93 0 0 0
2018-08-13 10:00:00 28.5 26.8 30.3 0 6776 0 27.39 25.65 29.14 0 0 0
2018-08-13 11:00:00 32.1 30.5 33.7 0 6816 0 29.85 28.83 30.68 0 0 0
2018-08-13 12:00:00 35.4 34 36.7 0 6834 0 30.74 30.23 31.71 0 0 0
2018-08-13 13:00:00 38 36.9 39.1 0 6914 0 31.74 30.33 32.86 0 0 0
2018-08-13 14:00:00 39.7 39.3 40 0 6914 0 32.6 31.77 33.61 0 0 0
2018-08-13 15:00:00 40.4 40 40.7 0 6914 0 33.67 32.29 34.77 0 0 0
2018-08-13 16:00:00 40.7 40.7 40.9 0 6914 0 32.57 31.59 33.29 0 0 0
2018-08-13 17:00:00 40.3 39.8 40.8 0 6904 0 32.84 31.72 34.32 0 0 0
2018-08-13 18:00:00 38.9 38 39.8 0 6796 0 31.74 31.45 32.14 0 0 0
2018-08-13 19:00:00 36.7 35.7 37.8 0 6610 0 30.92 30.4 31.27 0 0 0
2018-08-13 20:00:00 34.2 33.1 35.3 0 6600 0 28.89 27.29 30.23 0 0 0
2018-08-13 21:00:00 31.9 31.1 33 0 6590 0 24.7 22.89 26.77 0 0 0
2018-08-13 22:00:00 30.2 29.5 30.9 0 6582 0 21.82 21.14 22.6 0 0 0
2018-08-13 23:00:00 28.8 28.3 29.4 0 6572 0 19.88 19.17 20.92 0 0 0
2018-08-14 00:00:00 27.6 27.1 28.2 0 6562 0 18.31 17.12 19.2 0 0 0
2018-08-14 01:00:00 26.6 26.2 27 0 6562 0 17.21 16.71 17.5 0 0 0
2018-08-14 02:00:00 25.8 25.5 26.2 0 6552 0 16.32 15.64 16.78 0 0 0
2018-08-14 03:00:00 25 24.6 25.3 0 6542 0 14.83 14.34 15.56 0 0 0
2018-08-14 04:00:00 24.4 24.2 24.7 0 6542 0 14.16 13.48 14.7 0 0 0
2018-08-14 05:00:00 23.8 23.6 24.1 0 6532 0 13.87 12.8 14.22 0 0 0
2018-08-14 06:00:00 23.2 23 23.6 0 6522 0 11.98 11.7 12.44 0 0 0
2018-08-14 07:00:00 22.7 22.7 23 0 6502 0 12.52 11.91 12.9 65.61 8.2 0
2018-08-14 08:00:00 22.7 22.7 22.9 0 6542 0 15.79 13.57 18.77 16.66 2.2 0
2018-08-14 09:00:00 24.2 22.9 26 0 6610 0 21.91 19.13 24.09 0 0 0
2018-08-14 10:00:00 28.2 26.3 30.1 0 6796 0 26.58 24.55 28.15 0 0 0